Time;durP1;ratioP1;P1;durP2;ratioP2;P2;SDS_P1;SDS_P2;PMS_P1;PMS_P2;Temp;Humidity;BMP_temperature;BMP_pressure;BME280_temperature;BME280_humidity;BME280_pressure;Samples;Min_cycle;Max_cycle;Signal;HPM_P1;HPM_P2
2023/09/02 00:01:15;;;;;;;3.47;0.80;;;20.80;45.70;;;;;;5052867;28;20024;-63
2023/09/02 00:03:42;;;;;;;3.05;0.70;;;20.40;44.20;;;;;;5053252;28;20386;-62
2023/09/02 00:06:10;;;;;;;2.00;0.55;;;20.90;45.70;;;;;;5053494;28;20029;-63
2023/09/02 00:08:37;;;;;;;3.70;0.60;;;21.30;44.10;;;;;;5053732;28;20059;-63
2023/09/02 00:11:05;;;;;;;4.35;0.70;;;21.60;44.00;;;;;;5054485;28;20082;-64
2023/09/02 00:13:32;;;;;;;4.18;0.80;;;21.60;44.40;;;;;;5053124;28;20017;-63
2023/09/02 00:16:00;;;;;;;1.77;0.77;;;21.40;43.50;;;;;;5053280;28;20036;-63
2023/09/02 00:18:28;;;;;;;3.85;0.85;;;20.80;45.30;;;;;;5053281;28;20066;-63
2023/09/02 00:20:56;;;;;;;3.53;1.00;;;20.10;46.30;;;;;;5053551;28;20470;-63
2023/09/02 00:23:24;;;;;;;3.90;0.90;;;20.80;45.90;;;;;;5054478;28;20029;-63
2023/09/02 00:25:51;;;;;;;4.97;0.70;;;20.50;46.20;;;;;;5053369;28;20479;-63
2023/09/02 00:28:19;;;;;;;4.53;0.80;;;21.30;45.10;;;;;;5053435;28;20024;-62
2023/09/02 00:30:46;;;;;;;3.80;0.70;;;21.60;44.10;;;;;;5053321;28;20025;-62
2023/09/02 00:33:13;;;;;;;2.38;0.60;;;21.80;43.50;;;;;;5053914;28;20025;-63
2023/09/02 00:35:41;;;;;;;5.43;0.95;;;21.60;45.40;;;;;;5053687;28;20103;-62
2023/09/02 00:38:08;;;;;;;2.35;0.60;;;22.00;43.10;;;;;;5053347;28;20025;-62
2023/09/02 00:40:38;;;;;;;2.70;0.60;;;22.70;43.30;;;;;;5053299;28;20417;-62
2023/09/02 00:43:06;;;;;;;2.80;0.60;;;22.10;44.00;;;;;;5053186;28;20025;-63
2023/09/02 00:45:35;;;;;;;1.88;0.70;;;22.50;44.40;;;;;;5053217;28;20021;-63
2023/09/02 00:48:03;;;;;;;3.58;0.60;;;22.40;44.80;;;;;;5053158;28;20021;-63
2023/09/02 00:50:30;;;;;;;2.45;0.75;;;21.80;43.10;;;;;;5053102;28;20360;-63
2023/09/02 00:52:58;;;;;;;3.63;0.90;;;21.50;44.70;;;;;;5053237;28;20025;-64
2023/09/02 00:55:25;;;;;;;1.10;0.60;;;21.60;44.00;;;;;;5053435;28;20036;-62
2023/09/02 00:57:53;;;;;;;3.50;0.65;;;21.80;45.00;;;;;;5053435;28;20075;-64
2023/09/02 01:00:21;;;;;;;1.90;0.70;;;22.40;43.40;;;;;;5056839;28;20103;-63
2023/09/02 01:02:50;;;;;;;4.18;0.98;;;22.30;44.60;;;;;;5056796;28;20361;-62
2023/09/02 01:05:17;;;;;;;4.03;1.08;;;22.10;45.00;;;;;;5056529;28;20025;-63
2023/09/02 01:07:45;;;;;;;3.08;0.80;;;22.70;42.50;;;;;;5056436;28;20467;-63
2023/09/02 01:10:13;;;;;;;3.50;0.73;;;22.20;43.50;;;;;;5056719;28;20148;-64
2023/09/02 01:12:41;;;;;;;2.20;0.70;;;21.90;46.20;;;;;;5056513;28;20028;-63
2023/09/02 01:15:09;;;;;;;2.63;0.60;;;22.20;43.30;;;;;;5057220;28;20398;-62
2023/09/02 01:17:36;;;;;;;2.28;0.60;;;22.30;43.10;;;;;;5056921;28;20473;-62
2023/09/02 01:20:08;;;;;;;2.42;0.70;;;21.50;45.10;;;;;;5057088;28;20112;-62
2023/09/02 01:22:47;;;;;;;2.53;0.50;;;20.70;46.10;;;;;;5057818;28;20037;-62
2023/09/02 01:25:49;;;;;;;2.38;0.60;;;20.80;45.70;;;;;;5056280;28;20435;-62
2023/09/02 01:28:21;;;;;;;4.78;0.77;;;21.30;45.90;;;;;;5045136;28;20033;-63
2023/09/02 01:30:54;;;;;;;2.80;0.70;;;21.30;45.80;;;;;;5056312;28;20036;-63
2023/09/02 01:33:25;;;;;;;2.60;0.60;;;20.90;46.40;;;;;;5056224;28;20055;-63
2023/09/02 01:35:57;;;;;;;4.72;1.08;;;20.90;46.10;;;;;;5055841;28;20025;-63
2023/09/02 01:38:27;;;;;;;1.55;0.52;;;21.70;45.20;;;;;;5056580;28;20028;-63
2023/09/02 01:40:56;;;;;;;2.05;0.63;;;22.40;43.70;;;;;;5056397;28;20059;-62
2023/09/02 01:43:25;;;;;;;3.50;0.52;;;22.90;44.00;;;;;;5039335;28;20474;-63
2023/09/02 01:45:53;;;;;;;0.93;0.45;;;22.10;44.10;;;;;;5055696;28;20048;-62
2023/09/02 01:48:21;;;;;;;2.17;0.73;;;22.10;44.10;;;;;;5055448;28;20074;-64
2023/09/02 01:50:49;;;;;;;2.40;0.60;;;22.50;43.90;;;;;;5056547;28;20055;-64
2023/09/02 01:53:17;;;;;;;4.95;1.02;;;21.90;44.70;;;;;;5039014;28;20088;-66
2023/09/02 01:55:45;;;;;;;2.08;0.60;;;22.50;44.80;;;;;;5055800;28;20482;-63
2023/09/02 01:58:13;;;;;;;2.35;0.70;;;23.10;45.00;;;;;;5055304;28;20079;-63
2023/09/02 02:00:40;;;;;;;1.95;0.65;;;23.10;43.40;;;;;;5055440;28;20025;-65
2023/09/02 02:03:20;;;;;;;2.22;0.70;;;23.20;41.40;;;;;;5055726;28;20043;-63
2023/09/02 02:05:53;;;;;;;2.28;0.63;;;22.50;42.30;;;;;;5039703;28;20021;-64
2023/09/02 02:08:50;;;;;;;3.13;0.60;;;21.70;44.50;;;;;;5039000;28;20100;-64
2023/09/02 02:11:20;;;;;;;1.88;0.60;;;21.60;44.00;;;;;;5041904;28;20035;-63
2023/09/02 02:13:50;;;;;;;2.20;0.65;;;22.00;44.40;;;;;;5055397;28;20017;-63
2023/09/02 02:16:22;;;;;;;2.30;0.60;;;21.70;45.10;;;;;;5056157;28;20025;-63
2023/09/02 02:18:49;;;;;;;2.72;0.60;;;22.30;43.60;;;;;;5055124;28;20091;-63
2023/09/02 02:21:17;;;;;;;3.90;0.63;;;22.00;43.20;;;;;;5055422;28;20057;-63
2023/09/02 02:23:45;;;;;;;2.50;0.60;;;22.20;44.30;;;;;;5055006;28;20043;-64
2023/09/02 02:26:13;;;;;;;2.83;0.90;;;22.50;42.40;;;;;;5055993;28;20017;-64
2023/09/02 02:28:40;;;;;;;3.15;0.80;;;23.00;41.70;;;;;;5055829;28;20025;-64
2023/09/02 02:31:08;;;;;;;1.90;0.63;;;23.10;42.80;;;;;;5054630;28;20025;-63
2023/09/02 02:33:39;;;;;;;1.35;0.80;;;22.80;45.70;;;;;;5055213;28;20126;-64
2023/09/02 02:36:09;;;;;;;2.22;0.60;;;23.40;41.90;;;;;;5055026;28;20152;-64
2023/09/02 02:38:37;;;;;;;2.40;0.73;;;23.00;41.80;;;;;;5055730;28;20107;-63
2023/09/02 02:41:04;;;;;;;1.85;0.63;;;22.30;44.40;;;;;;5054576;28;20035;-63
2023/09/02 02:43:32;;;;;;;2.40;0.80;;;21.90;43.10;;;;;;5055304;28;20459;-64
2023/09/02 02:46:03;;;;;;;3.22;0.88;;;21.80;44.60;;;;;;5055718;28;20029;-63
2023/09/02 02:48:32;;;;;;;3.13;0.60;;;22.60;43.30;;;;;;5056122;28;20108;-64
2023/09/02 02:50:59;;;;;;;1.48;0.63;;;23.10;41.40;;;;;;5054563;28;20091;-63
2023/09/02 02:53:27;;;;;;;2.45;0.50;;;22.10;43.10;;;;;;5054362;28;20103;-63
2023/09/02 02:55:55;;;;;;;2.22;0.80;;;21.40;44.70;;;;;;5055451;28;20025;-64
2023/09/02 02:58:22;;;;;;;1.27;0.70;;;21.50;44.70;;;;;;5054389;28;20024;-64
2023/09/02 03:00:50;;;;;;;2.72;0.80;;;21.70;43.80;;;;;;5054239;28;20044;-64
2023/09/02 03:03:17;;;;;;;2.58;0.88;;;22.30;44.90;;;;;;5054712;28;20398;-64
2023/09/02 03:05:44;;;;;;;2.63;1.02;;;21.90;44.50;;;;;;5054167;28;20028;-64
2023/09/02 03:08:12;;;;;;;2.33;0.85;;;21.70;45.30;;;;;;5054351;28;20080;-63
2023/09/02 03:10:39;;;;;;;3.40;0.70;;;22.30;44.50;;;;;;5055241;28;20070;-63
2023/09/02 03:13:07;;;;;;;5.35;1.83;;;22.70;43.60;;;;;;5053838;28;20021;-64
2023/09/02 03:15:35;;;;;;;5.35;0.80;;;23.20;42.80;;;;;;5053969;28;20057;-63
2023/09/02 03:18:02;;;;;;;2.80;0.55;;;22.40;43.90;;;;;;5055101;28;20032;-63
2023/09/02 03:20:31;;;;;;;3.42;0.85;;;21.40;44.50;;;;;;5054269;28;20028;-63
2023/09/02 03:22:58;;;;;;;2.90;1.27;;;20.50;45.60;;;;;;5054297;28;20082;-64
2023/09/02 03:25:27;;;;;;;3.83;1.20;;;21.00;47.30;;;;;;5054362;28;20029;-63
2023/09/02 03:27:55;;;;;;;1.90;0.60;;;21.10;45.60;;;;;;5054344;28;20021;-64
2023/09/02 03:30:22;;;;;;;2.13;0.77;;;21.00;44.60;;;;;;5055332;28;20031;-64
2023/09/02 03:32:50;;;;;;;2.42;0.75;;;20.80;46.30;;;;;;5054310;28;20036;-63
2023/09/02 03:35:18;;;;;;;2.28;0.80;;;20.60;46.50;;;;;;5054107;28;20120;-65
2023/09/02 03:37:45;;;;;;;2.28;0.80;;;20.60;46.90;;;;;;5053931;28;20343;-65
2023/09/02 03:40:13;;;;;;;1.85;0.60;;;20.20;47.40;;;;;;5054002;28;20032;-65
2023/09/02 03:42:40;;;;;;;5.22;0.90;;;19.70;50.00;;;;;;5055022;28;20032;-64
2023/09/02 03:45:11;;;;;;;1.50;0.68;;;19.30;52.20;;;;;;5055210;28;20033;-64
2023/09/02 03:47:39;;;;;;;4.45;1.40;;;19.30;50.80;;;;;;5053967;28;20098;-65
2023/09/02 03:50:07;;;;;;;3.50;1.00;;;19.30;51.60;;;;;;5054761;28;20025;-65
2023/09/02 03:52:35;;;;;;;3.13;0.90;;;19.40;51.50;;;;;;5054032;28;20116;-63
2023/09/02 03:55:03;;;;;;;4.47;1.02;;;19.40;51.60;;;;;;5054055;28;20025;-63
2023/09/02 03:57:31;;;;;;;2.88;0.65;;;19.30;51.20;;;;;;5054001;28;20103;-64
2023/09/02 03:59:59;;;;;;;3.38;0.70;;;20.10;50.00;;;;;;5053929;28;20444;-64
2023/09/02 04:02:27;;;;;;;4.55;0.90;;;21.30;48.50;;;;;;5054723;28;20033;-64
2023/09/02 04:04:54;;;;;;;3.15;0.98;;;22.10;47.30;;;;;;5053814;28;20052;-64
2023/09/02 04:07:22;;;;;;;4.07;0.73;;;21.30;47.60;;;;;;5053173;28;20051;-63
2023/09/02 04:09:50;;;;;;;3.85;0.90;;;20.90;48.30;;;;;;5053702;28;20025;-64
2023/09/02 04:12:18;;;;;;;2.25;0.73;;;20.50;49.80;;;;;;5053816;28;20087;-64
2023/09/02 04:14:46;;;;;;;4.28;1.02;;;20.20;50.10;;;;;;5053861;28;20104;-64
2023/09/02 04:17:13;;;;;;;2.58;0.70;;;20.00;50.70;;;;;;5053763;28;20021;-62
2023/09/02 04:19:41;;;;;;;3.72;1.00;;;19.80;50.50;;;;;;5053777;28;20022;-63
2023/09/02 04:22:09;;;;;;;2.55;0.80;;;19.70;51.40;;;;;;5053805;28;20029;-64
2023/09/02 04:24:37;;;;;;;2.38;0.70;;;20.60;50.60;;;;;;5053816;28;20035;-64
2023/09/02 04:27:05;;;;;;;4.38;0.77;;;20.90;48.40;;;;;;5053746;28;20025;-64
2023/09/02 04:29:33;;;;;;;4.28;1.25;;;21.50;48.30;;;;;;5053468;28;20032;-65
2023/09/02 04:32:00;;;;;;;3.10;0.68;;;21.70;46.70;;;;;;5053535;28;20112;-64
2023/09/02 04:34:28;;;;;;;3.00;0.70;;;21.30;48.00;;;;;;5056434;28;20033;-63
2023/09/02 04:36:55;;;;;;;4.38;1.02;;;20.60;48.10;;;;;;5056441;28;20044;-63
2023/09/02 04:39:23;;;;;;;5.47;1.00;;;20.50;48.40;;;;;;5057021;28;20025;-64
2023/09/02 04:41:50;;;;;;;4.68;0.93;;;20.10;49.60;;;;;;5057033;28;20036;-64
2023/09/02 04:44:18;;;;;;;4.10;1.30;;;20.20;51.10;;;;;;5057280;28;20033;-64
2023/09/02 04:46:45;;;;;;;3.80;0.60;;;20.80;49.00;;;;;;5057127;28;20492;-64
2023/09/02 04:49:13;;;;;;;3.63;0.85;;;21.50;47.90;;;;;;5057930;28;20391;-64
2023/09/02 04:51:41;;;;;;;3.85;0.85;;;21.60;47.80;;;;;;5056653;28;20060;-63
2023/09/02 04:54:08;;;;;;;2.53;0.98;;;21.80;47.20;;;;;;5057953;28;20028;-63
2023/09/02 04:56:37;;;;;;;2.67;0.90;;;21.80;46.40;;;;;;5056909;28;20067;-64
2023/09/02 04:59:04;;;;;;;4.25;1.38;;;21.70;47.40;;;;;;5056809;28;20132;-63
2023/09/02 05:01:32;;;;;;;5.30;0.90;;;21.40;48.30;;;;;;5056675;28;20108;-63
2023/09/02 05:04:00;;;;;;;4.95;0.80;;;21.50;47.10;;;;;;5056975;28;20103;-63
2023/09/02 05:06:27;;;;;;;5.78;0.95;;;21.50;47.30;;;;;;5056801;28;20116;-63
2023/09/02 05:08:56;;;;;;;2.65;0.82;;;21.60;47.90;;;;;;5057664;28;20550;-63
2023/09/02 05:11:23;;;;;;;5.07;0.98;;;21.80;48.80;;;;;;5056737;28;20033;-63
2023/09/02 05:13:51;;;;;;;3.97;0.73;;;22.10;47.30;;;;;;5057685;28;20021;-64
2023/09/02 05:16:18;;;;;;;5.65;1.35;;;21.80;50.10;;;;;;5057730;28;20363;-65
2023/09/02 05:18:46;;;;;;;2.13;0.47;;;20.70;52.10;;;;;;5057563;28;20029;-63
2023/09/02 05:21:13;;;;;;;3.58;0.85;;;20.80;53.60;;;;;;5057548;28;20025;-63
2023/09/02 05:23:41;;;;;;;3.88;0.70;;;20.00;53.90;;;;;;5057570;28;20039;-63
2023/09/02 05:26:08;;;;;;;4.43;0.98;;;19.60;55.20;;;;;;5057412;28;20053;-64
2023/09/02 05:28:36;;;;;;;3.50;0.70;;;20.30;55.30;;;;;;5056343;28;20044;-64
2023/09/02 05:31:03;;;;;;;6.30;1.00;;;20.90;51.90;;;;;;5055934;28;20029;-63
2023/09/02 05:33:31;;;;;;;5.60;1.10;;;21.50;50.20;;;;;;5056457;28;20021;-62
2023/09/02 05:35:58;;;;;;;3.72;1.55;;;22.90;47.80;;;;;;5057344;28;20028;-63
2023/09/02 05:38:26;;;;;;;5.72;1.50;;;23.40;46.60;;;;;;5057389;28;20021;-64
2023/09/02 05:40:54;;;;;;;2.60;0.75;;;23.70;45.50;;;;;;5056213;28;20360;-63
2023/09/02 05:43:24;;;;;;;4.57;0.93;;;24.10;43.70;;;;;;5055616;28;20108;-63
2023/09/02 05:45:52;;;;;;;3.42;0.80;;;24.20;44.70;;;;;;5057045;28;20021;-64
2023/09/02 05:48:19;;;;;;;3.80;1.08;;;24.90;42.10;;;;;;5057364;28;20029;-64
2023/09/02 05:50:47;;;;;;;2.05;0.57;;;24.60;42.80;;;;;;5055733;28;20055;-64
2023/09/02 05:53:15;;;;;;;2.78;1.10;;;24.90;42.20;;;;;;5056062;28;20108;-64
2023/09/02 05:55:42;;;;;;;5.32;1.20;;;25.20;41.80;;;;;;5055932;28;20470;-65
2023/09/02 05:58:10;;;;;;;4.00;1.00;;;25.00;42.30;;;;;;5055656;28;20113;-65
2023/09/02 06:00:37;;;;;;;3.72;1.10;;;25.10;42.00;;;;;;5055454;28;20024;-64
2023/09/02 06:03:05;;;;;;;4.10;1.13;;;25.60;41.60;;;;;;5055552;28;20060;-63
2023/09/02 06:05:32;;;;;;;4.10;1.23;;;25.20;41.90;;;;;;5055557;28;20021;-63
2023/09/02 06:08:00;;;;;;;6.03;1.27;;;25.40;41.80;;;;;;5056419;28;20455;-63
2023/09/02 06:10:27;;;;;;;4.40;1.13;;;26.10;41.20;;;;;;5055448;28;20047;-63
2023/09/02 06:12:55;;;;;;;5.60;1.02;;;25.70;41.50;;;;;;5055659;28;20340;-63
2023/09/02 06:15:22;;;;;;;4.90;0.95;;;24.60;43.60;;;;;;5056287;28;20049;-64
2023/09/02 06:17:50;;;;;;;3.17;0.80;;;24.50;44.20;;;;;;5055335;28;20032;-63
2023/09/02 06:20:20;;;;;;;3.10;0.90;;;24.80;43.30;;;;;;5056456;28;20037;-63
2023/09/02 06:22:48;;;;;;;5.40;1.00;;;25.30;43.50;;;;;;5055400;28;20039;-63
2023/09/02 06:25:15;;;;;;;4.18;0.80;;;25.10;43.00;;;;;;5055455;28;20036;-63
2023/09/02 06:27:43;;;;;;;3.88;0.90;;;24.30;44.50;;;;;;5055163;28;20025;-64
2023/09/02 06:30:12;;;;;;;7.80;1.33;;;23.90;45.10;;;;;;5056177;28;20033;-65
2023/09/02 06:32:39;;;;;;;4.72;1.20;;;24.10;44.90;;;;;;5055109;28;20050;-63
2023/09/02 06:35:11;;;;;;;2.90;0.90;;;24.70;44.30;;;;;;5055756;28;20435;-63
2023/09/02 06:37:39;;;;;;;4.68;1.00;;;24.60;43.70;;;;;;5055259;28;20116;-62
2023/09/02 06:40:07;;;;;;;4.03;0.90;;;25.10;42.90;;;;;;5055003;28;20021;-62
2023/09/02 06:42:35;;;;;;;4.32;1.17;;;24.80;43.00;;;;;;5055841;28;20024;-63
2023/09/02 06:45:02;;;;;;;3.97;1.05;;;25.10;42.70;;;;;;5055846;28;20351;-64
2023/09/02 06:47:30;;;;;;;3.63;0.80;;;24.80;42.70;;;;;;5054660;28;20112;-64
2023/09/02 06:49:57;;;;;;;5.70;1.85;;;20.90;50.10;;;;;;5055467;28;20025;-64
2023/09/02 06:52:25;;;;;;;3.70;1.50;;;19.10;54.40;;;;;;5054624;28;20112;-64
2023/09/02 06:54:53;;;;;;;4.22;1.42;;;18.50;56.80;;;;;;5054767;28;20048;-63
2023/09/02 06:57:20;;;;;;;6.15;1.17;;;18.00;58.70;;;;;;5053896;28;20041;-63
2023/09/02 06:59:47;;;;;;;8.77;1.48;;;17.70;59.60;;;;;;5055396;28;20021;-64
2023/09/02 07:02:15;;;;;;;3.72;0.90;;;17.60;60.30;;;;;;5055423;28;20024;-64
2023/09/02 07:04:42;;;;;;;3.65;0.90;;;17.50;60.40;;;;;;5055369;28;20355;-64
2023/09/02 07:07:10;;;;;;;4.50;0.80;;;17.10;61.70;;;;;;5053960;28;20065;-64
2023/09/02 07:09:37;;;;;;;4.25;0.70;;;17.10;61.90;;;;;;5054163;28;20056;-63
2023/09/02 07:12:05;;;;;;;3.53;0.70;;;17.00;61.40;;;;;;5054104;28;20028;-64
2023/09/02 07:14:33;;;;;;;3.45;0.60;;;17.00;61.80;;;;;;5054153;28;20358;-63
2023/09/02 07:17:01;;;;;;;5.20;0.80;;;16.80;62.30;;;;;;5055105;28;20079;-64
2023/09/02 07:19:28;;;;;;;4.45;0.90;;;16.70;62.60;;;;;;5055030;28;20390;-64
2023/09/02 07:21:57;;;;;;;5.50;1.30;;;16.90;62.30;;;;;;5055120;28;20071;-63
2023/09/02 07:24:26;;;;;;;5.80;0.85;;;16.80;62.60;;;;;;5054027;28;20033;-64
2023/09/02 07:26:54;;;;;;;2.38;0.98;;;16.70;62.60;;;;;;5054166;28;20025;-63
2023/09/02 07:29:21;;;;;;;4.53;1.40;;;16.60;62.50;;;;;;5054007;28;20112;-64
2023/09/02 07:31:49;;;;;;;3.05;1.10;;;16.50;63.00;;;;;;5053792;28;20104;-64
2023/09/02 07:34:16;;;;;;;4.03;1.10;;;16.50;63.50;;;;;;5053890;28;20045;-64
2023/09/02 07:36:44;;;;;;;7.30;1.35;;;16.50;63.70;;;;;;5053949;28;20131;-63
2023/09/02 07:39:12;;;;;;;7.32;1.80;;;16.40;64.30;;;;;;5053781;28;20021;-63
2023/09/02 07:41:40;;;;;;;6.43;2.05;;;16.30;64.90;;;;;;5053668;28;20052;-64
2023/09/02 07:44:09;;;;;;;5.22;1.30;;;16.20;65.30;;;;;;5053862;28;20028;-64
2023/09/02 07:46:36;;;;;;;5.45;1.40;;;16.00;66.10;;;;;;5053828;28;20111;-63
2023/09/02 07:49:04;;;;;;;6.10;2.15;;;16.00;66.90;;;;;;5046552;28;20021;-65
2023/09/02 07:51:32;;;;;;;5.80;1.60;;;15.90;66.90;;;;;;5053912;28;20056;-64
2023/09/02 07:53:59;;;;;;;4.72;1.40;;;15.80;67.20;;;;;;5053665;28;20025;-64
2023/09/02 07:56:27;;;;;;;5.22;1.55;;;15.70;67.00;;;;;;5054898;28;20029;-64
2023/09/02 07:58:54;;;;;;;5.93;1.05;;;15.70;66.80;;;;;;5053723;28;20447;-64
2023/09/02 08:01:22;;;;;;;3.75;1.05;;;15.60;66.80;;;;;;5053902;28;20091;-64
2023/09/02 08:03:50;;;;;;;3.83;1.20;;;15.60;67.00;;;;;;5054846;28;20102;-64
2023/09/02 08:06:17;;;;;;;4.60;1.63;;;15.60;67.30;;;;;;5053916;28;20032;-64
2023/09/02 08:08:45;;;;;;;6.93;2.00;;;15.60;67.20;;;;;;5057275;28;20029;-64
2023/09/02 08:11:17;;;;;;;4.75;1.30;;;15.50;68.30;;;;;;5057898;28;20079;-64
2023/09/02 08:13:44;;;;;;;;;;;15.50;70.30;;;;;;5058351;28;20394;-64
2023/09/02 08:16:12;;;;;;;7.53;1.30;;;15.50;71.30;;;;;;5057919;28;19904;-64
2023/09/02 08:18:40;;;;;;;4.57;1.88;;;15.30;72.20;;;;;;5057714;28;20394;-64
2023/09/02 08:21:11;;;;;;;8.18;2.25;;;15.30;72.80;;;;;;5057862;28;20087;-63
2023/09/02 08:23:39;;;;;;;6.47;1.77;;;15.30;73.00;;;;;;5057087;28;20029;-64
2023/09/02 08:26:11;;;;;;;3.28;1.00;;;15.30;73.10;;;;;;5058503;28;20739;-64
2023/09/02 08:28:39;;;;;;;3.35;1.20;;;15.30;73.00;;;;;;5057562;28;20029;-64
2023/09/02 08:31:11;;;;;;;5.82;1.40;;;15.30;73.30;;;;;;5058504;28;20028;-64
2023/09/02 08:33:39;;;;;;;3.72;0.93;;;15.20;73.30;;;;;;5057681;28;20108;-63
2023/09/02 08:36:06;;;;;;;5.32;1.02;;;15.10;73.60;;;;;;5058507;28;20439;-64
2023/09/02 08:38:34;;;;;;;4.90;0.90;;;15.00;74.30;;;;;;5058303;28;20016;-64
2023/09/02 08:41:05;;;;;;;7.88;1.55;;;14.90;74.50;;;;;;5057536;28;20056;-63
2023/09/02 08:43:33;;;;;;;2.80;0.90;;;14.90;74.60;;;;;;5057438;28;20532;-64
2023/09/02 08:46:03;;;;;;;7.25;1.50;;;14.80;75.00;;;;;;5057383;28;20076;-64
2023/09/02 08:48:34;;;;;;;4.82;1.17;;;14.80;75.20;;;;;;5057263;28;20029;-63
2023/09/02 08:51:03;;;;;;;6.05;2.42;;;14.80;75.20;;;;;;5040443;28;20463;-63
2023/09/02 08:53:32;;;;;;;8.55;2.80;;;14.80;75.20;;;;;;5058208;28;20339;-63
2023/09/02 08:56:01;;;;;;;3.97;1.50;;;14.80;75.30;;;;;;5057063;28;20324;-65
2023/09/02 08:58:29;;;;;;;7.63;1.33;;;14.70;75.50;;;;;;5056927;28;20024;-65
2023/09/02 09:00:58;;;;;;;5.20;1.40;;;14.70;75.50;;;;;;5057176;28;20021;-62
2023/09/02 09:03:29;;;;;;;8.18;1.60;;;14.80;75.30;;;;;;5058067;28;20078;-64
2023/09/02 09:06:02;;;;;;;9.32;2.38;;;14.80;75.50;;;;;;5040938;28;20036;-65
2023/09/02 09:08:32;;;;;;;9.18;2.05;;;14.70;75.60;;;;;;5057002;28;20120;-64
2023/09/02 09:11:00;;;;;;;5.68;1.70;;;14.70;75.70;;;;;;5056921;28;20048;-66
2023/09/02 09:13:29;;;;;;;9.52;2.63;;;14.60;75.70;;;;;;5056934;28;20025;-64
2023/09/02 09:15:58;;;;;;;8.82;2.67;;;14.50;75.80;;;;;;5040494;28;20352;-65
2023/09/02 09:18:26;;;;;;;8.20;2.70;;;14.50;76.20;;;;;;5056420;28;20044;-64
2023/09/02 09:20:54;;;;;;;8.15;2.67;;;14.50;76.30;;;;;;5057340;28;20032;-64
2023/09/02 09:23:22;;;;;;;8.70;2.70;;;14.40;76.30;;;;;;5056689;28;20021;-64
2023/09/02 09:25:52;;;;;;;10.43;2.72;;;14.40;76.40;;;;;;5056788;28;20112;-63
2023/09/02 09:28:20;;;;;;;7.20;3.00;;;14.30;76.50;;;;;;5056528;28;20087;-63
2023/09/02 09:30:47;;;;;;;5.68;1.80;;;14.20;76.70;;;;;;5056494;28;20021;-65
2023/09/02 09:33:18;;;;;;;7.93;2.42;;;14.10;76.90;;;;;;5057555;28;20459;-64
2023/09/02 09:35:45;;;;;;;7.38;1.67;;;14.10;77.20;;;;;;5056641;28;20064;-64
2023/09/02 09:38:13;;;;;;;6.70;2.03;;;14.00;77.30;;;;;;5056433;28;20063;-65
2023/09/02 09:40:41;;;;;;;5.55;1.70;;;14.00;77.40;;;;;;5056389;28;20025;-64
2023/09/02 09:43:17;;;;;;;5.28;1.50;;;13.90;77.90;;;;;;5056386;28;20067;-64
2023/09/02 09:45:52;;;;;;;3.75;2.10;;;13.90;77.80;;;;;;5057295;28;20351;-64
2023/09/02 09:48:20;;;;;;;3.85;1.50;;;13.50;79.10;;;;;;5056249;28;20471;-64
2023/09/02 09:50:48;;;;;;;6.57;2.17;;;13.10;81.00;;;;;;5055948;28;20059;-65
2023/09/02 09:53:15;;;;;;;5.70;3.35;;;12.90;81.90;;;;;;5057143;28;20343;-63
2023/09/02 09:55:43;;;;;;;8.00;3.35;;;12.70;82.30;;;;;;5057145;28;20044;-64
2023/09/02 09:58:11;;;;;;;8.32;3.15;;;12.70;82.30;;;;;;5056017;28;20035;-63
2023/09/02 10:00:38;;;;;;;5.47;3.22;;;12.90;82.10;;;;;;5055829;28;20021;-63
2023/09/02 10:03:06;;;;;;;6.78;3.33;;;13.00;81.70;;;;;;5056986;28;20066;-64
2023/09/02 10:05:35;;;;;;;9.20;3.30;;;12.80;81.80;;;;;;5055904;28;20036;-63
2023/09/02 10:08:08;;;;;;;8.73;3.65;;;12.70;82.00;;;;;;5039208;28;20025;-64
2023/09/02 10:10:39;;;;;;;9.18;3.83;;;12.70;82.40;;;;;;5056795;28;20036;-63
2023/09/02 10:13:06;;;;;;;6.32;3.80;;;12.50;83.10;;;;;;5055833;28;20108;-64
2023/09/02 10:15:34;;;;;;;8.52;4.30;;;12.30;83.30;;;;;;5056639;28;20017;-63
2023/09/02 10:18:05;;;;;;;10.10;4.80;;;12.40;83.40;;;;;;5055453;28;20044;-63
2023/09/02 10:20:38;;;;;;;11.88;4.97;;;12.10;84.20;;;;;;5055923;28;20016;-63
2023/09/02 10:23:07;;;;;;;12.38;6.03;;;12.10;84.30;;;;;;5055543;28;20053;-62
2023/09/02 10:25:46;;;;;;;10.73;4.47;;;12.20;83.90;;;;;;5056354;28;20079;-62
2023/09/02 10:28:22;;;;;;;8.77;3.72;;;12.10;84.00;;;;;;5056357;28;20482;-63
2023/09/02 10:30:52;;;;;;;7.10;3.30;;;12.10;84.00;;;;;;5054337;28;20387;-63
2023/09/02 10:33:54;;;;;;;7.47;3.72;;;12.30;83.60;;;;;;5055570;28;20451;-63
2023/09/02 10:36:27;;;;;;;11.68;4.10;;;12.30;83.20;;;;;;5056038;28;20086;-62
2023/09/02 10:38:58;;;;;;;9.13;4.53;;;12.30;83.20;;;;;;5055133;28;20096;-64
2023/09/02 10:41:26;;;;;;;7.78;4.85;;;12.40;83.00;;;;;;5055086;28;20028;-63
2023/09/02 10:43:56;;;;;;;11.07;4.85;;;12.40;82.80;;;;;;5056098;28;20036;-63
2023/09/02 10:46:24;;;;;;;10.63;5.35;;;12.10;83.80;;;;;;5054320;28;20075;-62
2023/09/02 10:48:52;;;;;;;8.00;5.65;;;12.00;84.30;;;;;;5054920;28;20021;-62
2023/09/02 10:51:20;;;;;;;9.20;4.78;;;12.10;84.30;;;;;;5054744;28;20052;-63
2023/09/02 10:53:50;;;;;;;9.88;5.03;;;12.30;83.90;;;;;;5054933;28;20020;-62
2023/09/02 10:56:25;;;;;;;10.82;5.88;;;12.30;83.70;;;;;;5054922;28;20060;-63
2023/09/02 10:58:53;;;;;;;14.57;7.03;;;12.40;83.40;;;;;;5055763;28;20021;-62
2023/09/02 11:01:21;;;;;;;12.30;8.20;;;12.50;82.70;;;;;;5054802;28;20056;-62
2023/09/02 11:03:50;;;;;;;9.25;5.97;;;12.50;82.70;;;;;;5054814;28;20029;-63
2023/09/02 11:06:18;;;;;;;12.10;6.28;;;12.30;83.50;;;;;;5054826;28;20035;-64
2023/09/02 11:08:53;;;;;;;8.82;6.68;;;12.40;83.40;;;;;;5054671;28;20059;-63
2023/09/02 11:11:21;;;;;;;10.80;6.47;;;12.40;83.30;;;;;;5054482;28;20025;-63
2023/09/02 11:14:07;;;;;;;8.95;6.70;;;12.50;83.40;;;;;;5054657;28;20029;-63
2023/09/02 11:16:35;;;;;;;12.38;6.70;;;12.50;83.20;;;;;;5054576;28;20028;-63
2023/09/02 11:19:08;;;;;;;13.88;7.07;;;12.50;83.20;;;;;;5054489;28;20032;-63
2023/09/02 11:21:40;;;;;;;13.98;7.80;;;12.60;83.20;;;;;;5055527;28;20381;-63
2023/09/02 11:24:25;;;;;;;11.93;7.57;;;12.70;83.10;;;;;;5054567;28;20068;-63
2023/09/02 11:27:00;;;;;;;12.43;8.63;;;12.70;83.00;;;;;;5055424;28;20035;-63
2023/09/02 11:29:30;;;;;;;12.68;8.75;;;12.60;83.10;;;;;;5055157;28;20075;-62
2023/09/02 11:32:03;;;;;;;17.08;9.50;;;12.70;83.40;;;;;;5054169;28;20028;-63
2023/09/02 11:34:31;;;;;;;11.75;8.65;;;12.80;83.30;;;;;;5054369;28;20036;-63
2023/09/02 11:37:03;;;;;;;13.18;8.90;;;12.70;83.20;;;;;;5054297;28;20112;-62
2023/09/02 11:39:34;;;;;;;12.27;8.10;;;12.60;83.60;;;;;;5054231;28;20455;-63
2023/09/02 11:42:09;;;;;;;14.75;8.70;;;12.70;83.50;;;;;;5053912;28;20258;-62
2023/09/02 11:44:37;;;;;;;14.00;8.75;;;12.90;83.20;;;;;;5054219;28;20021;-63
2023/09/02 11:47:06;;;;;;;10.07;6.95;;;13.00;82.70;;;;;;5054146;28;20021;-63
2023/09/02 11:49:34;;;;;;;12.05;6.43;;;13.00;82.40;;;;;;5054085;28;20053;-62
2023/09/02 11:52:02;;;;;;;12.52;6.45;;;13.10;82.50;;;;;;5053822;28;20041;-62
2023/09/02 11:54:38;;;;;;;13.40;6.80;;;13.00;82.50;;;;;;5054828;28;20045;-62
2023/09/02 11:57:05;;;;;;;11.85;6.63;;;13.00;82.70;;;;;;5054024;28;20436;-64
2023/09/02 11:59:33;;;;;;;10.93;6.30;;;13.10;82.70;;;;;;5054011;28;20419;-63
2023/09/02 12:02:12;;;;;;;12.88;6.90;;;13.20;82.40;;;;;;5054872;28;20052;-61
2023/09/02 12:04:47;;;;;;;13.18;6.18;;;13.30;82.20;;;;;;5053950;28;20033;-63
2023/09/02 12:07:15;;;;;;;13.18;6.25;;;13.10;82.40;;;;;;5053981;28;20036;-62
2023/09/02 12:09:43;;;;;;;11.48;5.97;;;13.10;82.60;;;;;;5053859;28;20052;-62
2023/09/02 12:12:12;;;;;;;9.32;6.25;;;13.20;82.50;;;;;;5053822;28;20036;-62
2023/09/02 12:14:40;;;;;;;13.82;6.47;;;13.20;82.40;;;;;;5054885;28;20028;-63
2023/09/02 12:17:08;;;;;;;9.77;6.43;;;13.20;82.40;;;;;;5053976;28;20027;-63
2023/09/02 12:19:35;;;;;;;13.60;8.02;;;13.10;82.50;;;;;;5053794;28;20033;-63
2023/09/02 12:22:03;;;;;;;13.05;6.63;;;13.10;82.70;;;;;;5053854;28;20025;-62
2023/09/02 12:24:31;;;;;;;12.20;6.22;;;13.00;83.10;;;;;;5053847;28;20048;-62
2023/09/02 12:26:59;;;;;;;11.02;6.18;;;13.00;83.40;;;;;;5054748;28;20068;-62
2023/09/02 12:29:26;;;;;;;13.13;6.93;;;13.00;83.30;;;;;;5054711;28;20396;-62
2023/09/02 12:31:58;;;;;;;10.13;5.80;;;13.10;83.00;;;;;;5053683;28;20087;-62
2023/09/02 12:34:36;;;;;;;14.02;6.72;;;13.10;83.20;;;;;;5053829;28;20112;-62
2023/09/02 12:37:17;;;;;;;12.45;6.15;;;13.10;83.10;;;;;;5053814;28;20025;-62
2023/09/02 12:39:45;;;;;;;11.95;6.53;;;13.20;83.00;;;;;;5054559;28;20025;-63
2023/09/02 12:42:26;;;;;;;11.75;7.00;;;13.20;82.80;;;;;;5053634;28;20079;-62
2023/09/02 12:45:05;;;;;;;13.07;6.57;;;13.20;83.00;;;;;;5053754;28;20025;-62
2023/09/02 12:47:34;;;;;;;12.07;6.53;;;13.10;83.00;;;;;;5053718;28;20036;-62
2023/09/02 12:50:05;;;;;;;11.27;6.55;;;13.10;83.30;;;;;;5053383;28;20036;-63
2023/09/02 12:52:35;;;;;;;10.87;6.57;;;13.20;83.20;;;;;;5053600;28;20044;-63
2023/09/02 12:55:05;;;;;;;11.18;6.30;;;13.30;83.00;;;;;;5055676;28;20051;-62